sensor_id;sensor_type;location;lat;lon;timestamp;temperature;humidity
1468;DHT22;727;48.892;9.544;2022-10-13T00:00:30;8.40;99.90
1468;DHT22;727;48.892;9.544;2022-10-13T00:02:58;8.30;99.90
1468;DHT22;727;48.892;9.544;2022-10-13T00:05:26;8.30;99.90
1468;DHT22;727;48.892;9.544;2022-10-13T00:07:53;8.20;99.90
1468;DHT22;727;48.892;9.544;2022-10-13T00:10:20;8.20;99.90
1468;DHT22;727;48.892;9.544;2022-10-13T00:12:48;8.20;99.90
1468;DHT22;727;48.892;9.544;2022-10-13T00:15:15;8.20;99.90
1468;DHT22;727;48.892;9.544;2022-10-13T00:17:42;8.20;99.90
1468;DHT22;727;48.892;9.544;2022-10-13T00:20:09;8.20;99.90
1468;DHT22;727;48.892;9.544;2022-10-13T00:22:36;8.10;99.90
1468;DHT22;727;48.892;9.544;2022-10-13T00:25:04;8.10;99.90
1468;DHT22;727;48.892;9.544;2022-10-13T00:27:31;8.10;99.90
1468;DHT22;727;48.892;9.544;2022-10-13T00:29:59;8.20;99.90
1468;DHT22;727;48.892;9.544;2022-10-13T00:32:26;8.10;99.90
1468;DHT22;727;48.892;9.544;2022-10-13T00:34:52;8.10;99.90
1468;DHT22;727;48.892;9.544;2022-10-13T00:37:19;8.00;99.90
1468;DHT22;727;48.892;9.544;2022-10-13T00:39:46;8.00;99.90
1468;DHT22;727;48.892;9.544;2022-10-13T00:42:12;8.00;99.90
1468;DHT22;727;48.892;9.544;2022-10-13T00:45:04;8.00;99.90
1468;DHT22;727;48.892;9.544;2022-10-13T00:47:35;8.00;99.90
1468;DHT22;727;48.892;9.544;2022-10-13T00:50:04;8.10;99.90
1468;DHT22;727;48.892;9.544;2022-10-13T00:52:32;8.10;99.90
1468;DHT22;727;48.892;9.544;2022-10-13T00:54:59;8.20;99.90
1468;DHT22;727;48.892;9.544;2022-10-13T00:57:26;8.30;99.90
1468;DHT22;727;48.892;9.544;2022-10-13T00:59:53;8.40;99.90
1468;DHT22;727;48.892;9.544;2022-10-13T01:02:22;8.40;99.90
1468;DHT22;727;48.892;9.544;2022-10-13T01:04:53;8.40;99.90
1468;DHT22;727;48.892;9.544;2022-10-13T01:07:21;8.40;99.90
1468;DHT22;727;48.892;9.544;2022-10-13T01:09:48;8.30;99.90
1468;DHT22;727;48.892;9.544;2022-10-13T01:12:25;8.30;99.90
1468;DHT22;727;48.892;9.544;2022-10-13T01:15:00;8.20;99.90
1468;DHT22;727;48.892;9.544;2022-10-13T01:17:36;8.10;99.90
1468;DHT22;727;48.892;9.544;2022-10-13T01:23:17;8.10;99.90
1468;DHT22;727;48.892;9.544;2022-10-13T01:28:57;8.00;99.90
1468;DHT22;727;48.892;9.544;2022-10-13T01:31:34;8.00;99.90
1468;DHT22;727;48.892;9.544;2022-10-13T01:34:08;7.90;99.90
1468;DHT22;727;48.892;9.544;2022-10-13T01:36:38;7.90;99.90
1468;DHT22;727;48.892;9.544;2022-10-13T01:39:14;7.90;99.90
1468;DHT22;727;48.892;9.544;2022-10-13T01:41:46;7.90;99.90
1468;DHT22;727;48.892;9.544;2022-10-13T01:44:20;7.90;99.90
1468;DHT22;727;48.892;9.544;2022-10-13T01:46:51;7.90;99.90
1468;DHT22;727;48.892;9.544;2022-10-13T01:49:23;7.90;99.90
1468;DHT22;727;48.892;9.544;2022-10-13T01:51:53;7.90;99.90
1468;DHT22;727;48.892;9.544;2022-10-13T01:54:21;7.90;99.90
1468;DHT22;727;48.892;9.544;2022-10-13T01:56:51;8.00;99.90
1468;DHT22;727;48.892;9.544;2022-10-13T01:59:19;8.10;99.90
1468;DHT22;727;48.892;9.544;2022-10-13T02:01:54;8.10;99.90
1468;DHT22;727;48.892;9.544;2022-10-13T02:04:29;8.20;99.90
1468;DHT22;727;48.892;9.544;2022-10-13T02:07:04;8.30;99.90
1468;DHT22;727;48.892;9.544;2022-10-13T02:09:42;8.30;99.90
1468;DHT22;727;48.892;9.544;2022-10-13T02:12:17;8.30;99.90
1468;DHT22;727;48.892;9.544;2022-10-13T02:14:46;8.30;99.90
1468;DHT22;727;48.892;9.544;2022-10-13T02:17:16;8.30;99.90
1468;DHT22;727;48.892;9.544;2022-10-13T02:19:43;8.40;99.90
1468;DHT22;727;48.892;9.544;2022-10-13T02:22:12;8.40;99.90
1468;DHT22;727;48.892;9.544;2022-10-13T02:24:40;8.50;99.90
1468;DHT22;727;48.892;9.544;2022-10-13T02:27:07;8.50;99.90
1468;DHT22;727;48.892;9.544;2022-10-13T02:29:48;8.60;99.90
1468;DHT22;727;48.892;9.544;2022-10-13T02:32:16;8.60;99.90
1468;DHT22;727;48.892;9.544;2022-10-13T02:34:43;8.70;99.90
1468;DHT22;727;48.892;9.544;2022-10-13T02:37:09;8.70;99.90
1468;DHT22;727;48.892;9.544;2022-10-13T02:39:37;8.80;99.90
1468;DHT22;727;48.892;9.544;2022-10-13T02:42:03;8.90;99.90
1468;DHT22;727;48.892;9.544;2022-10-13T02:44:30;8.90;99.90
1468;DHT22;727;48.892;9.544;2022-10-13T02:46:57;8.90;99.90
1468;DHT22;727;48.892;9.544;2022-10-13T02:49:25;8.90;99.90
1468;DHT22;727;48.892;9.544;2022-10-13T02:51:52;9.00;99.90
1468;DHT22;727;48.892;9.544;2022-10-13T02:54:19;9.00;99.90
1468;DHT22;727;48.892;9.544;2022-10-13T02:56:46;9.00;99.90
1468;DHT22;727;48.892;9.544;2022-10-13T02:59:12;9.10;99.90
1468;DHT22;727;48.892;9.544;2022-10-13T03:01:39;9.10;99.90
1468;DHT22;727;48.892;9.544;2022-10-13T03:04:06;9.20;99.90
1468;DHT22;727;48.892;9.544;2022-10-13T03:06:34;9.20;99.90
1468;DHT22;727;48.892;9.544;2022-10-13T03:09:02;9.20;99.90
1468;DHT22;727;48.892;9.544;2022-10-13T03:11:29;9.20;99.90
1468;DHT22;727;48.892;9.544;2022-10-13T03:13:56;9.20;99.90
1468;DHT22;727;48.892;9.544;2022-10-13T03:16:22;9.30;99.90
1468;DHT22;727;48.892;9.544;2022-10-13T03:18:49;9.40;99.90
1468;DHT22;727;48.892;9.544;2022-10-13T03:21:16;9.40;99.90
1468;DHT22;727;48.892;9.544;2022-10-13T03:23:44;9.40;99.90
1468;DHT22;727;48.892;9.544;2022-10-13T03:26:11;9.50;99.90
1468;DHT22;727;48.892;9.544;2022-10-13T03:28:37;9.70;99.90
1468;DHT22;727;48.892;9.544;2022-10-13T03:31:06;9.70;99.90
1468;DHT22;727;48.892;9.544;2022-10-13T03:33:33;9.70;99.90
1468;DHT22;727;48.892;9.544;2022-10-13T03:36:01;9.70;99.90
1468;DHT22;727;48.892;9.544;2022-10-13T03:38:29;9.80;99.90
1468;DHT22;727;48.892;9.544;2022-10-13T03:41:03;9.80;99.90
1468;DHT22;727;48.892;9.544;2022-10-13T03:43:30;9.90;99.90
1468;DHT22;727;48.892;9.544;2022-10-13T03:45:59;9.90;99.90
1468;DHT22;727;48.892;9.544;2022-10-13T03:48:26;9.90;99.90
1468;DHT22;727;48.892;9.544;2022-10-13T03:50:53;10.00;99.90
1468;DHT22;727;48.892;9.544;2022-10-13T03:53:20;10.00;99.90
1468;DHT22;727;48.892;9.544;2022-10-13T03:55:51;10.00;99.90
1468;DHT22;727;48.892;9.544;2022-10-13T03:58:20;10.00;99.90
1468;DHT22;727;48.892;9.544;2022-10-13T04:00:48;10.00;99.90
1468;DHT22;727;48.892;9.544;2022-10-13T04:03:15;10.00;99.90
1468;DHT22;727;48.892;9.544;2022-10-13T04:05:42;10.00;99.90
1468;DHT22;727;48.892;9.544;2022-10-13T04:08:09;9.90;99.90
1468;DHT22;727;48.892;9.544;2022-10-13T04:10:37;10.00;99.90
1468;DHT22;727;48.892;9.544;2022-10-13T04:13:04;10.00;99.90
1468;DHT22;727;48.892;9.544;2022-10-13T04:15:35;10.00;99.90
1468;DHT22;727;48.892;9.544;2022-10-13T04:18:01;10.00;99.90
1468;DHT22;727;48.892;9.544;2022-10-13T04:20:28;10.10;99.90
1468;DHT22;727;48.892;9.544;2022-10-13T04:22:55;10.10;99.90
1468;DHT22;727;48.892;9.544;2022-10-13T04:25:22;10.10;99.90
1468;DHT22;727;48.892;9.544;2022-10-13T04:27:48;10.10;99.90
1468;DHT22;727;48.892;9.544;2022-10-13T04:30:15;10.00;99.90
1468;DHT22;727;48.892;9.544;2022-10-13T04:32:43;10.00;99.90
1468;DHT22;727;48.892;9.544;2022-10-13T04:35:10;10.10;99.90
1468;DHT22;727;48.892;9.544;2022-10-13T04:37:36;10.10;99.90
1468;DHT22;727;48.892;9.544;2022-10-13T04:40:04;10.10;99.90
1468;DHT22;727;48.892;9.544;2022-10-13T04:42:31;10.10;99.90
1468;DHT22;727;48.892;9.544;2022-10-13T04:44:59;10.10;99.90
1468;DHT22;727;48.892;9.544;2022-10-13T04:47:25;10.20;99.90
1468;DHT22;727;48.892;9.544;2022-10-13T04:49:53;10.20;99.90
1468;DHT22;727;48.892;9.544;2022-10-13T04:52:20;10.20;99.90
1468;DHT22;727;48.892;9.544;2022-10-13T04:54:47;10.30;99.90
1468;DHT22;727;48.892;9.544;2022-10-13T04:57:13;10.30;99.90
1468;DHT22;727;48.892;9.544;2022-10-13T04:59:40;10.30;99.90
1468;DHT22;727;48.892;9.544;2022-10-13T05:02:07;10.20;99.90
1468;DHT22;727;48.892;9.544;2022-10-13T05:04:35;10.10;99.90
1468;DHT22;727;48.892;9.544;2022-10-13T05:07:03;10.10;99.90
1468;DHT22;727;48.892;9.544;2022-10-13T05:09:30;10.00;99.90
1468;DHT22;727;48.892;9.544;2022-10-13T05:11:56;10.00;99.90
1468;DHT22;727;48.892;9.544;2022-10-13T05:14:23;9.90;99.90
1468;DHT22;727;48.892;9.544;2022-10-13T05:16:50;9.90;99.90
1468;DHT22;727;48.892;9.544;2022-10-13T05:19:16;9.80;99.90
1468;DHT22;727;48.892;9.544;2022-10-13T05:21:43;9.70;99.90
1468;DHT22;727;48.892;9.544;2022-10-13T05:24:11;9.60;99.90
1468;DHT22;727;48.892;9.544;2022-10-13T05:26:40;9.60;99.90
1468;DHT22;727;48.892;9.544;2022-10-13T05:29:07;9.50;99.90
1468;DHT22;727;48.892;9.544;2022-10-13T05:31:34;9.50;99.90
1468;DHT22;727;48.892;9.544;2022-10-13T05:34:01;9.40;99.90
1468;DHT22;727;48.892;9.544;2022-10-13T05:36:29;9.40;99.90
1468;DHT22;727;48.892;9.544;2022-10-13T05:38:58;9.40;99.90
1468;DHT22;727;48.892;9.544;2022-10-13T05:41:27;9.40;99.90
1468;DHT22;727;48.892;9.544;2022-10-13T05:43:57;9.50;99.90
1468;DHT22;727;48.892;9.544;2022-10-13T05:46:24;9.50;99.90
1468;DHT22;727;48.892;9.544;2022-10-13T05:48:51;9.50;99.90
1468;DHT22;727;48.892;9.544;2022-10-13T05:51:21;9.60;99.90
1468;DHT22;727;48.892;9.544;2022-10-13T05:53:51;9.60;99.90
1468;DHT22;727;48.892;9.544;2022-10-13T05:56:22;9.70;99.90
1468;DHT22;727;48.892;9.544;2022-10-13T05:58:52;9.70;99.90
1468;DHT22;727;48.892;9.544;2022-10-13T06:01:22;9.80;99.90
1468;DHT22;727;48.892;9.544;2022-10-13T06:03:52;9.90;99.90
1468;DHT22;727;48.892;9.544;2022-10-13T06:06:20;9.90;99.90
1468;DHT22;727;48.892;9.544;2022-10-13T06:08:48;10.00;99.90
1468;DHT22;727;48.892;9.544;2022-10-13T06:11:15;10.10;99.90
1468;DHT22;727;48.892;9.544;2022-10-13T06:13:42;10.10;99.90
1468;DHT22;727;48.892;9.544;2022-10-13T06:16:10;10.30;99.90
1468;DHT22;727;48.892;9.544;2022-10-13T06:18:37;10.30;99.90
1468;DHT22;727;48.892;9.544;2022-10-13T06:21:04;10.50;99.90
1468;DHT22;727;48.892;9.544;2022-10-13T06:23:30;10.60;99.90
1468;DHT22;727;48.892;9.544;2022-10-13T06:25:57;10.70;99.90
1468;DHT22;727;48.892;9.544;2022-10-13T06:28:25;10.80;99.90
1468;DHT22;727;48.892;9.544;2022-10-13T06:30:52;11.00;99.90
1468;DHT22;727;48.892;9.544;2022-10-13T06:33:22;11.10;99.90
1468;DHT22;727;48.892;9.544;2022-10-13T06:35:49;11.30;99.90
1468;DHT22;727;48.892;9.544;2022-10-13T06:38:16;11.40;99.90
1468;DHT22;727;48.892;9.544;2022-10-13T06:40:43;11.50;99.90
1468;DHT22;727;48.892;9.544;2022-10-13T06:43:10;11.60;99.90
1468;DHT22;727;48.892;9.544;2022-10-13T06:45:37;11.90;99.90
1468;DHT22;727;48.892;9.544;2022-10-13T06:48:04;11.90;99.90
1468;DHT22;727;48.892;9.544;2022-10-13T06:52:59;11.80;99.90
1468;DHT22;727;48.892;9.544;2022-10-13T06:55:25;11.70;99.90
1468;DHT22;727;48.892;9.544;2022-10-13T06:57:52;11.60;99.90
1468;DHT22;727;48.892;9.544;2022-10-13T07:00:19;11.60;99.90
1468;DHT22;727;48.892;9.544;2022-10-13T07:02:48;11.60;99.90
1468;DHT22;727;48.892;9.544;2022-10-13T07:05:15;11.60;99.90
1468;DHT22;727;48.892;9.544;2022-10-13T07:07:44;11.60;99.90
1468;DHT22;727;48.892;9.544;2022-10-13T07:10:11;11.70;99.90
1468;DHT22;727;48.892;9.544;2022-10-13T07:12:37;11.70;99.90
1468;DHT22;727;48.892;9.544;2022-10-13T07:15:06;11.80;99.90
1468;DHT22;727;48.892;9.544;2022-10-13T07:17:33;12.00;99.90
1468;DHT22;727;48.892;9.544;2022-10-13T07:19:59;12.10;99.90
1468;DHT22;727;48.892;9.544;2022-10-13T07:22:28;12.40;99.90
1468;DHT22;727;48.892;9.544;2022-10-13T07:24:56;12.60;99.90
1468;DHT22;727;48.892;9.544;2022-10-13T07:27:23;12.70;99.90
1468;DHT22;727;48.892;9.544;2022-10-13T07:29:49;12.80;99.90
1468;DHT22;727;48.892;9.544;2022-10-13T07:32:16;12.80;99.90
1468;DHT22;727;48.892;9.544;2022-10-13T07:34:43;12.90;99.90
1468;DHT22;727;48.892;9.544;2022-10-13T07:37:09;13.10;99.90
1468;DHT22;727;48.892;9.544;2022-10-13T07:39:36;13.30;99.90
1468;DHT22;727;48.892;9.544;2022-10-13T07:42:04;13.40;99.90
1468;DHT22;727;48.892;9.544;2022-10-13T07:44:31;13.40;99.90
1468;DHT22;727;48.892;9.544;2022-10-13T07:46:58;13.40;99.90
1468;DHT22;727;48.892;9.544;2022-10-13T07:49:24;13.20;99.90
1468;DHT22;727;48.892;9.544;2022-10-13T07:51:51;13.20;99.90
1468;DHT22;727;48.892;9.544;2022-10-13T07:54:18;13.20;99.90
1468;DHT22;727;48.892;9.544;2022-10-13T07:56:44;13.20;99.90
1468;DHT22;727;48.892;9.544;2022-10-13T07:59:12;13.30;99.90
1468;DHT22;727;48.892;9.544;2022-10-13T08:01:39;13.50;99.90
1468;DHT22;727;48.892;9.544;2022-10-13T08:04:06;13.70;99.90
1468;DHT22;727;48.892;9.544;2022-10-13T08:06:33;14.00;99.90
1468;DHT22;727;48.892;9.544;2022-10-13T08:08:59;14.40;99.90
1468;DHT22;727;48.892;9.544;2022-10-13T08:11:27;14.70;99.90
1468;DHT22;727;48.892;9.544;2022-10-13T08:13:54;15.10;99.90
1468;DHT22;727;48.892;9.544;2022-10-13T08:16:26;15.60;99.90
1468;DHT22;727;48.892;9.544;2022-10-13T08:18:53;16.20;99.90
1468;DHT22;727;48.892;9.544;2022-10-13T08:21:20;16.40;99.90
1468;DHT22;727;48.892;9.544;2022-10-13T08:23:47;16.20;99.90
1468;DHT22;727;48.892;9.544;2022-10-13T08:26:16;16.10;99.90
1468;DHT22;727;48.892;9.544;2022-10-13T08:28:43;16.10;99.90
1468;DHT22;727;48.892;9.544;2022-10-13T08:31:10;16.00;99.90
1468;DHT22;727;48.892;9.544;2022-10-13T08:33:38;15.90;99.90
1468;DHT22;727;48.892;9.544;2022-10-13T08:36:06;15.90;99.90
1468;DHT22;727;48.892;9.544;2022-10-13T08:38:33;16.10;99.90
1468;DHT22;727;48.892;9.544;2022-10-13T08:41:00;16.10;99.90
1468;DHT22;727;48.892;9.544;2022-10-13T08:43:27;16.20;99.90
1468;DHT22;727;48.892;9.544;2022-10-13T08:45:57;16.20;99.90
1468;DHT22;727;48.892;9.544;2022-10-13T08:48:26;16.10;99.90
1468;DHT22;727;48.892;9.544;2022-10-13T08:51:00;16.10;99.90
1468;DHT22;727;48.892;9.544;2022-10-13T08:53:29;16.20;99.90
1468;DHT22;727;48.892;9.544;2022-10-13T08:55:58;16.40;99.90
1468;DHT22;727;48.892;9.544;2022-10-13T08:58:27;17.10;99.90
1468;DHT22;727;48.892;9.544;2022-10-13T09:01:00;18.30;99.90
1468;DHT22;727;48.892;9.544;2022-10-13T09:03:30;19.70;99.20
1468;DHT22;727;48.892;9.544;2022-10-13T09:06:10;21.00;96.10
1468;DHT22;727;48.892;9.544;2022-10-13T09:08:40;22.00;93.10
1468;DHT22;727;48.892;9.544;2022-10-13T09:11:10;22.70;90.80
1468;DHT22;727;48.892;9.544;2022-10-13T09:13:37;23.50;87.90
1468;DHT22;727;48.892;9.544;2022-10-13T09:16:05;24.30;83.80
1468;DHT22;727;48.892;9.544;2022-10-13T09:18:33;24.70;80.50
1468;DHT22;727;48.892;9.544;2022-10-13T09:21:17;24.90;78.70
1468;DHT22;727;48.892;9.544;2022-10-13T09:23:44;24.30;79.50
1468;DHT22;727;48.892;9.544;2022-10-13T09:26:18;24.40;78.80
1468;DHT22;727;48.892;9.544;2022-10-13T09:28:47;24.50;77.80
1468;DHT22;727;48.892;9.544;2022-10-13T09:31:16;24.30;78.70
1468;DHT22;727;48.892;9.544;2022-10-13T09:33:44;24.70;77.60
1468;DHT22;727;48.892;9.544;2022-10-13T09:36:15;24.70;78.50
1468;DHT22;727;48.892;9.544;2022-10-13T09:38:44;24.80;75.60
1468;DHT22;727;48.892;9.544;2022-10-13T09:41:14;24.70;76.00
1468;DHT22;727;48.892;9.544;2022-10-13T09:43:43;24.50;76.20
1468;DHT22;727;48.892;9.544;2022-10-13T09:46:26;24.30;77.20
1468;DHT22;727;48.892;9.544;2022-10-13T09:48:56;23.80;77.30
1468;DHT22;727;48.892;9.544;2022-10-13T09:51:33;23.40;78.70
1468;DHT22;727;48.892;9.544;2022-10-13T09:54:01;22.70;80.70
1468;DHT22;727;48.892;9.544;2022-10-13T09:56:34;22.40;82.20
1468;DHT22;727;48.892;9.544;2022-10-13T09:59:09;21.90;84.30
1468;DHT22;727;48.892;9.544;2022-10-13T10:01:39;21.60;84.90
1468;DHT22;727;48.892;9.544;2022-10-13T10:04:11;21.40;85.80
1468;DHT22;727;48.892;9.544;2022-10-13T10:06:40;21.20;85.90
1468;DHT22;727;48.892;9.544;2022-10-13T10:09:18;20.80;86.70
1468;DHT22;727;48.892;9.544;2022-10-13T10:11:49;20.30;88.50
1468;DHT22;727;48.892;9.544;2022-10-13T10:14:23;19.60;90.80
1468;DHT22;727;48.892;9.544;2022-10-13T10:16:56;19.30;91.60
1468;DHT22;727;48.892;9.544;2022-10-13T10:19:28;19.00;92.20
1468;DHT22;727;48.892;9.544;2022-10-13T10:22:04;19.10;92.80
1468;DHT22;727;48.892;9.544;2022-10-13T10:24:37;19.00;93.00
1468;DHT22;727;48.892;9.544;2022-10-13T10:27:12;18.80;93.20
1468;DHT22;727;48.892;9.544;2022-10-13T10:29:45;18.90;93.60
1468;DHT22;727;48.892;9.544;2022-10-13T10:32:24;19.00;94.10
1468;DHT22;727;48.892;9.544;2022-10-13T10:34:57;19.10;93.80
1468;DHT22;727;48.892;9.544;2022-10-13T10:37:40;19.10;93.50
1468;DHT22;727;48.892;9.544;2022-10-13T10:40:20;19.20;93.60
1468;DHT22;727;48.892;9.544;2022-10-13T10:43:16;19.20;93.70
1468;DHT22;727;48.892;9.544;2022-10-13T10:45:46;19.10;94.00
1468;DHT22;727;48.892;9.544;2022-10-13T10:48:18;19.00;93.70
1468;DHT22;727;48.892;9.544;2022-10-13T10:50:47;18.80;94.00
1468;DHT22;727;48.892;9.544;2022-10-13T10:53:21;18.60;94.20
1468;DHT22;727;48.892;9.544;2022-10-13T10:55:54;18.50;94.70
1468;DHT22;727;48.892;9.544;2022-10-13T10:58:30;18.30;95.10
1468;DHT22;727;48.892;9.544;2022-10-13T11:01:06;18.10;95.50
1468;DHT22;727;48.892;9.544;2022-10-13T11:03:44;18.00;96.10
1468;DHT22;727;48.892;9.544;2022-10-13T11:06:34;17.90;96.60
1468;DHT22;727;48.892;9.544;2022-10-13T11:09:03;17.90;97.10
1468;DHT22;727;48.892;9.544;2022-10-13T11:11:36;17.70;96.80
1468;DHT22;727;48.892;9.544;2022-10-13T11:14:23;17.60;97.50
1468;DHT22;727;48.892;9.544;2022-10-13T11:17:26;17.60;97.60
1468;DHT22;727;48.892;9.544;2022-10-13T11:19:53;17.60;97.80
1468;DHT22;727;48.892;9.544;2022-10-13T11:22:21;17.60;97.80
1468;DHT22;727;48.892;9.544;2022-10-13T11:25:01;17.60;98.10
1468;DHT22;727;48.892;9.544;2022-10-13T11:27:41;17.50;98.30
1468;DHT22;727;48.892;9.544;2022-10-13T11:30:43;17.50;98.90
1468;DHT22;727;48.892;9.544;2022-10-13T11:36:46;17.60;98.20
1468;DHT22;727;48.892;9.544;2022-10-13T11:43:05;17.90;98.00
1468;DHT22;727;48.892;9.544;2022-10-13T11:45:49;17.90;98.00
1468;DHT22;727;48.892;9.544;2022-10-13T11:48:36;17.90;98.10
1468;DHT22;727;48.892;9.544;2022-10-13T11:51:14;17.90;98.00
1468;DHT22;727;48.892;9.544;2022-10-13T11:53:51;18.20;97.90
1468;DHT22;727;48.892;9.544;2022-10-13T11:56:19;18.40;97.60
1468;DHT22;727;48.892;9.544;2022-10-13T11:58:48;18.50;96.80
1468;DHT22;727;48.892;9.544;2022-10-13T12:01:15;18.50;96.60
1468;DHT22;727;48.892;9.544;2022-10-13T12:03:44;18.60;96.90
1468;DHT22;727;48.892;9.544;2022-10-13T12:06:28;18.40;96.90
1468;DHT22;727;48.892;9.544;2022-10-13T12:09:00;18.50;96.70
1468;DHT22;727;48.892;9.544;2022-10-13T12:11:28;18.40;96.90
1468;DHT22;727;48.892;9.544;2022-10-13T12:13:57;18.30;96.70
1468;DHT22;727;48.892;9.544;2022-10-13T12:16:26;18.30;96.90
1468;DHT22;727;48.892;9.544;2022-10-13T12:19:05;18.30;96.80
1468;DHT22;727;48.892;9.544;2022-10-13T12:21:32;18.50;96.50
1468;DHT22;727;48.892;9.544;2022-10-13T12:24:06;18.60;96.40
1468;DHT22;727;48.892;9.544;2022-10-13T12:26:33;18.50;96.50
1468;DHT22;727;48.892;9.544;2022-10-13T12:29:02;18.50;96.50
1468;DHT22;727;48.892;9.544;2022-10-13T12:31:38;18.50;96.60
1468;DHT22;727;48.892;9.544;2022-10-13T12:34:16;18.40;96.70
1468;DHT22;727;48.892;9.544;2022-10-13T12:36:44;18.50;96.80
1468;DHT22;727;48.892;9.544;2022-10-13T12:39:13;18.60;97.10
1468;DHT22;727;48.892;9.544;2022-10-13T12:41:42;18.80;96.80
1468;DHT22;727;48.892;9.544;2022-10-13T12:44:14;18.80;96.30
1468;DHT22;727;48.892;9.544;2022-10-13T12:46:43;18.90;96.20
1468;DHT22;727;48.892;9.544;2022-10-13T12:49:14;18.90;96.30
1468;DHT22;727;48.892;9.544;2022-10-13T12:51:42;19.00;95.50
1468;DHT22;727;48.892;9.544;2022-10-13T12:54:21;19.40;95.00
1468;DHT22;727;48.892;9.544;2022-10-13T12:56:49;19.40;95.00
1468;DHT22;727;48.892;9.544;2022-10-13T12:59:19;19.60;94.90
1468;DHT22;727;48.892;9.544;2022-10-13T13:01:52;19.80;94.30
1468;DHT22;727;48.892;9.544;2022-10-13T13:04:31;19.90;94.40
1468;DHT22;727;48.892;9.544;2022-10-13T13:07:05;20.30;93.50
1468;DHT22;727;48.892;9.544;2022-10-13T13:09:59;20.90;92.70
1468;DHT22;727;48.892;9.544;2022-10-13T13:12:27;21.50;91.60
1468;DHT22;727;48.892;9.544;2022-10-13T13:14:56;22.00;90.60
1468;DHT22;727;48.892;9.544;2022-10-13T13:17:28;22.10;90.30
1468;DHT22;727;48.892;9.544;2022-10-13T13:19:55;22.30;88.50
1468;DHT22;727;48.892;9.544;2022-10-13T13:22:23;22.10;88.00
1468;DHT22;727;48.892;9.544;2022-10-13T13:24:50;22.10;88.70
1468;DHT22;727;48.892;9.544;2022-10-13T13:27:20;22.30;87.00
1468;DHT22;727;48.892;9.544;2022-10-13T13:29:48;22.10;87.00
1468;DHT22;727;48.892;9.544;2022-10-13T13:32:18;22.00;87.50
1468;DHT22;727;48.892;9.544;2022-10-13T13:34:45;21.70;88.50
1468;DHT22;727;48.892;9.544;2022-10-13T13:37:22;21.60;89.80
1468;DHT22;727;48.892;9.544;2022-10-13T13:39:50;21.40;89.10
1468;DHT22;727;48.892;9.544;2022-10-13T13:42:17;21.10;89.90
1468;DHT22;727;48.892;9.544;2022-10-13T13:44:44;20.90;89.90
1468;DHT22;727;48.892;9.544;2022-10-13T13:47:18;20.30;90.70
1468;DHT22;727;48.892;9.544;2022-10-13T13:49:45;20.20;91.40
1468;DHT22;727;48.892;9.544;2022-10-13T13:52:12;20.00;92.10
1468;DHT22;727;48.892;9.544;2022-10-13T13:54:39;19.80;92.80
1468;DHT22;727;48.892;9.544;2022-10-13T13:57:07;19.70;92.70
1468;DHT22;727;48.892;9.544;2022-10-13T13:59:34;19.50;93.30
1468;DHT22;727;48.892;9.544;2022-10-13T14:02:01;19.30;94.20
1468;DHT22;727;48.892;9.544;2022-10-13T14:04:32;19.20;94.10
1468;DHT22;727;48.892;9.544;2022-10-13T14:06:59;19.20;95.70
1468;DHT22;727;48.892;9.544;2022-10-13T14:09:26;19.10;96.70
1468;DHT22;727;48.892;9.544;2022-10-13T14:11:53;19.10;97.10
1468;DHT22;727;48.892;9.544;2022-10-13T14:14:19;19.10;96.90
1468;DHT22;727;48.892;9.544;2022-10-13T14:16:46;19.20;96.30
1468;DHT22;727;48.892;9.544;2022-10-13T14:19:13;19.20;95.90
1468;DHT22;727;48.892;9.544;2022-10-13T14:21:41;19.20;96.30
1468;DHT22;727;48.892;9.544;2022-10-13T14:24:10;19.10;96.10
1468;DHT22;727;48.892;9.544;2022-10-13T14:26:37;19.00;96.90
1468;DHT22;727;48.892;9.544;2022-10-13T14:29:04;18.90;97.40
1468;DHT22;727;48.892;9.544;2022-10-13T14:31:31;18.80;97.80
1468;DHT22;727;48.892;9.544;2022-10-13T14:33:58;18.70;97.50
1468;DHT22;727;48.892;9.544;2022-10-13T14:36:25;18.50;98.20
1468;DHT22;727;48.892;9.544;2022-10-13T14:38:53;18.30;97.90
1468;DHT22;727;48.892;9.544;2022-10-13T14:41:20;18.20;97.90
1468;DHT22;727;48.892;9.544;2022-10-13T14:43:50;18.10;98.50
1468;DHT22;727;48.892;9.544;2022-10-13T14:46:17;18.00;99.90
1468;DHT22;727;48.892;9.544;2022-10-13T14:48:44;17.90;99.90
1468;DHT22;727;48.892;9.544;2022-10-13T14:51:11;17.70;99.90
1468;DHT22;727;48.892;9.544;2022-10-13T14:53:39;17.60;99.90
1468;DHT22;727;48.892;9.544;2022-10-13T15:01:15;17.50;99.90
1468;DHT22;727;48.892;9.544;2022-10-13T15:03:43;17.40;99.90
1468;DHT22;727;48.892;9.544;2022-10-13T15:06:12;17.40;99.90
1468;DHT22;727;48.892;9.544;2022-10-13T15:08:39;17.30;99.90
1468;DHT22;727;48.892;9.544;2022-10-13T15:13:38;17.20;99.90
1468;DHT22;727;48.892;9.544;2022-10-13T15:16:06;17.20;99.90
1468;DHT22;727;48.892;9.544;2022-10-13T15:18:35;17.10;99.90
1468;DHT22;727;48.892;9.544;2022-10-13T15:21:02;17.00;99.90
1468;DHT22;727;48.892;9.544;2022-10-13T15:23:28;16.90;99.90
1468;DHT22;727;48.892;9.544;2022-10-13T15:25:58;16.80;99.90
1468;DHT22;727;48.892;9.544;2022-10-13T15:28:28;16.70;99.90
1468;DHT22;727;48.892;9.544;2022-10-13T15:30:55;16.70;99.90
1468;DHT22;727;48.892;9.544;2022-10-13T15:33:22;16.60;99.90
1468;DHT22;727;48.892;9.544;2022-10-13T15:35:51;16.40;99.90
1468;DHT22;727;48.892;9.544;2022-10-13T15:38:19;16.30;99.90
1468;DHT22;727;48.892;9.544;2022-10-13T15:40:46;16.30;99.90
1468;DHT22;727;48.892;9.544;2022-10-13T15:43:14;16.20;99.90
1468;DHT22;727;48.892;9.544;2022-10-13T15:45:42;16.20;99.90
1468;DHT22;727;48.892;9.544;2022-10-13T15:48:10;16.10;99.90
1468;DHT22;727;48.892;9.544;2022-10-13T15:50:38;16.00;99.90
1468;DHT22;727;48.892;9.544;2022-10-13T15:53:07;16.00;99.90
1468;DHT22;727;48.892;9.544;2022-10-13T15:55:33;15.90;99.90
1468;DHT22;727;48.892;9.544;2022-10-13T15:58:00;15.70;99.90
1468;DHT22;727;48.892;9.544;2022-10-13T16:00:27;15.60;99.90
1468;DHT22;727;48.892;9.544;2022-10-13T16:02:54;15.40;99.90
1468;DHT22;727;48.892;9.544;2022-10-13T16:05:20;15.10;99.90
1468;DHT22;727;48.892;9.544;2022-10-13T16:07:47;14.90;99.90
1468;DHT22;727;48.892;9.544;2022-10-13T16:10:16;14.80;99.90
1468;DHT22;727;48.892;9.544;2022-10-13T16:12:43;14.70;99.90
1468;DHT22;727;48.892;9.544;2022-10-13T16:15:10;14.60;99.90
1468;DHT22;727;48.892;9.544;2022-10-13T16:17:37;14.60;99.90
1468;DHT22;727;48.892;9.544;2022-10-13T16:20:05;14.60;99.90
1468;DHT22;727;48.892;9.544;2022-10-13T16:22:33;14.50;99.90
1468;DHT22;727;48.892;9.544;2022-10-13T16:24:59;14.60;99.90
1468;DHT22;727;48.892;9.544;2022-10-13T16:27:27;14.50;99.90
1468;DHT22;727;48.892;9.544;2022-10-13T16:29:54;14.40;99.90
1468;DHT22;727;48.892;9.544;2022-10-13T16:32:21;14.30;99.90
1468;DHT22;727;48.892;9.544;2022-10-13T16:34:47;14.20;99.90
1468;DHT22;727;48.892;9.544;2022-10-13T16:37:14;14.20;99.90
1468;DHT22;727;48.892;9.544;2022-10-13T16:39:41;14.10;99.90
1468;DHT22;727;48.892;9.544;2022-10-13T16:42:08;14.10;99.90
1468;DHT22;727;48.892;9.544;2022-10-13T16:44:36;14.00;99.90
1468;DHT22;727;48.892;9.544;2022-10-13T16:47:04;13.90;99.90
1468;DHT22;727;48.892;9.544;2022-10-13T16:49:31;13.90;99.90
1468;DHT22;727;48.892;9.544;2022-10-13T16:51:58;13.80;99.90
1468;DHT22;727;48.892;9.544;2022-10-13T16:54:25;13.80;99.90
1468;DHT22;727;48.892;9.544;2022-10-13T16:56:52;13.80;99.90
1468;DHT22;727;48.892;9.544;2022-10-13T16:59:19;13.80;99.90